x

Ne Puerto Rico - 170 Nm Nne Of San Juan, P R (41043) Wave Buoy

3:50am - Sun 7th Feb 2016 All times are AST. -4 hours from GMT.

  • Sig Wave height 6.2ft
  • Swell Direction
  • Peak Period 9s
  • Average Period 7s
  • Wind
    13mph, 16mph gusts
  • Sea Temp 80°f
  • Air Temp 77°f
  • Sea Pressure 1016.4mb
  • Ne Puerto Rico  - 170 Nm Nne Of San Juan,  P R
  • Ne Puerto Rico  - 170 Nm Nne Of San Juan,  P R

More Historic Weather Station data

Upgrade to MSW Pro to gain access to the past 30 days of data for over 8000 Wavebouys and Weather Stations around the globe.

Join Pro

Comparision Forecast

View Surf forecast
   
Sun 02/07 3:50am 6ft 9s 7s 13 16 mph 1016.4mb 80f 77f
2:50am 7ft 10s 7s 13 16 mph 1017.2mb 79f 76f
1:50am 7ft 9s 7s 11 13 mph 1018.2mb 79f 77f
12:50am 7ft 10s 7s 18 20 mph 1018.6mb 79f 76f
Sat 02/06 11:50pm 7ft 9s 7s 18 20 mph 1019.1mb 79f 78f
10:50pm 8ft 9s 8s 16 18 mph 1019.3mb 79f 79f
9:50pm 7.5ft 10s 8s 13 18 mph 1019.2mb 80f 79f
8:50pm 7.5ft 10s 8s 11 13 mph 1019mb 80f 79f
7:50pm 7.5ft 10s 7s 13
mph
1018.5mb 80f 79f
6:50pm 7ft 10s 8s 11 13 mph 1017.8mb 80f 79f
5:50pm 8ft 10s 8s 9 11 mph 1017.5mb 80f 79f
4:50pm 7ft 10s 7s 11 13 mph 1016.8mb 80f 79f
3:50pm 8ft 10s 8s 13 16 mph 1016.7mb 80f 79f
2:50pm 6ft 10s 7s 13 16 mph 1016.9mb 80f 79f
1:50pm 6ft 11s 7s 13 16 mph 1017.5mb 80f 79f
12:50pm 6ft 9s 7s 13 18 mph 1018.3mb 80f 78f
11:50am 6ft 10s 7s 16 18 mph 1018.9mb 79f 78f
10:50am 6.5ft 10s 7s 13 16 mph 1019.2mb 79f 78f
9:50am 6ft 10s 7s 16 18 mph 1019.1mb 79f 78f
8:50am 5ft 10s 7s 16 18 mph 1018.2mb 79f 78f
7:50am 5ft 10s 7s 16 18 mph 1017.6mb 79f 75f
6:50am 5.5ft 10s 8s 16 20 mph 1016.7mb 79f 76f
5:50am 6ft 11s 8s 9 11 mph 1016.1mb 79f 77f
4:50am 6ft 10s 8s 9 11 mph 1015.7mb 79f 77f
3:50am 6ft 10s 8s 9 11 mph 1015.7mb 79f 77f
2:50am 6.5ft 10s 8s 9 11 mph 1015.8mb 79f 77f
1:50am 7ft 10s 8s 9 11 mph 1016.5mb 79f 77f
12:50am 7ft 10s 8s 13 20 mph 1016.7mb 79f 77f
Fri 02/05 11:50pm 6ft 10s 8s 9
mph
1016.8mb 79f 78f
10:50pm 6ft 9s 8s 9 11 mph 1016.9mb 79f 78f
9:50pm 7.5ft 10s 8s 9 11 mph 1016.7mb 79f 78f
8:50pm 5.5ft 10s 7s 7 9 mph 1016.5mb 79f 77f
7:50pm 6ft 10s 7s 11 13 mph 1016mb 79f 78f
6:50pm 6.5ft 11s 8s 11 13 mph 1015.3mb 79f 78f
5:50pm 7ft 10s 8s 13 16 mph 1014.8mb 80f 77f
4:50pm 7ft 10s 7s 11 13 mph 1014.4mb 80f 78f
3:50pm 6.5ft 11s 7s 11 16 mph 1014mb 80f 78f
2:50pm 7ft 11s 8s 13 16 mph 1013.8mb 80f 78f
1:50pm 6.5ft 11s 7s 13 16 mph 1014.1mb 80f 78f
12:50pm 8.5ft 11s 8s 11 13 mph 1014.6mb 80f 78f
11:50am 8ft 10s 8s 11 16 mph 1015.5mb 79f 78f
10:50am 8ft 10s 8s 11 13 mph 1016.1mb 79f 77f
9:50am 7.5ft 10s 8s 9 11 mph 1015.9mb 79f 77f
8:50am 7ft 10s 8s 9 11 mph 1015.1mb 79f 77f
7:50am 6ft 10s 7s 9 13 mph 1014.3mb 79f 77f
6:50am 8ft 11s 8s 9 13 mph 1013.5mb 79f 77f
5:50am 7ft 11s 7s 9
mph
1012.8mb 79f 76f
4:50am 7.5ft 10s 7s 9 11 mph 1012.2mb 79f 76f
3:50am 7ft 10s 7s 11 13 mph 1011.9mb 79f 76f
2:50am 7.5ft 10s 7s 9 11 mph 1011.8mb 79f 76f
1:50am 8ft 10s 7s 9 13 mph 1012.3mb 79f 77f
12:50am 7.5ft 10s 7s 11 13 mph 1012.9mb 79f 77f
Thu 02/04 11:50pm 8ft 10s 7s 13 16 mph 1013.1mb 79f 76f
10:50pm 8ft 10s 7s 11 13 mph 1013.3mb 79f 76f
9:50pm 8ft 10s 7s 13 16 mph 1013.1mb 79f 76f
8:50pm 9ft 10s 7s 13 16 mph 1012.7mb 79f 77f
7:50pm 9ft 10s 7s 13 20 mph 1012.7mb 79f 75f
6:50pm 8ft 10s 7s 16 18 mph 1012.3mb 79f 76f
5:50pm 8ft 9s 7s 16 20 mph 1012.3mb 79f 76f
4:50pm 9ft 9s 7s 20 22 mph 1012.2mb 79f 76f
3:50pm 8ft 8s 6s 16 20 mph 1012.2mb 79f 76f
2:50pm 9ft 9s 7s 20 25 mph 1012.4mb 79f 76f
1:50pm 9ft 8s 6s 20 25 mph 1013.2mb 79f 76f
12:50pm 8ft 9s 6s 20 25 mph 1014.2mb 80f 76f
11:50am 8.5ft 8s 6s 18 22 mph 1015.2mb 80f 77f
10:50am 8.5ft 8s 6s 20 25 mph 1015.9mb 80f 77f
9:50am 9ft 8s 6s 22 27 mph 1015.7mb 80f 77f
8:50am 7.5ft 8s 6s 20 25 mph 1015.1mb 79f 77f
7:50am 8ft 7s 6s 22 29 mph 1014.6mb 79f 77f
6:50am 8ft 8s 6s 22 27 mph 1014.4mb 79f 77f
5:50am 7ft 7s 6s 22 27 mph 1014mb 79f 76f
4:50am 7ft 7s 6s 22 29 mph 1013.7mb 79f 76f
3:50am 7ft 7s 6s 22 29 mph 1013.9mb 79f 77f
2:50am 6ft 7s 6s 22 29 mph 1014.4mb 80f 77f
1:50am 7ft 7s 6s 20 29 mph 1015mb 80f 76f
12:50am 7ft 7s 6s 20 22 mph 1015.4mb 80f 77f
Wed 02/03 11:50pm 7ft 7s 6s 20 25 mph 1016.1mb 80f 77f
10:50pm 6ft 7s 6s 25 27 mph 1016.7mb 80f 77f
9:50pm 6ft 10s 6s 18 25 mph 1016.7mb 80f 75f
8:50pm 6ft 9s 6s 18 22 mph 1016.4mb 80f 78f
7:50pm 6ft 10s 6s 18 22 mph 1016mb 79f 78f
6:50pm 6ft 7s 6s 20 22 mph 1015.4mb 80f 78f
5:50pm 6ft 7s 6s 18 22 mph 1015.1mb 80f 78f
4:50pm 6ft 7s 6s 20 22 mph 1014.8mb 80f 78f
3:50pm 6.5ft 7s 6s 18 22 mph 1014.7mb 80f 78f
2:50pm 6.5ft 7s 6s 20 25 mph 1014.9mb 80f 78f
1:50pm 6ft 7s 6s 20 25 mph 1015.2mb 80f 78f
12:50pm 6ft 10s 6s 22 25 mph 1015.9mb 80f 78f
11:50am 6ft 6s 6s 22 27 mph 1016.5mb 80f 78f
10:50am 5ft 6s 5s 20 25 mph 1017.1mb 80f 78f
9:50am 5.5ft 9s 6s 18 22 mph 1017.1mb 80f 78f
8:50am 5.5ft 9s 6s 20 25 mph 1016.5mb 80f 78f